sensor_id;sensor_type;location;lat;lon;timestamp;P1;durP1;ratioP1;P2;durP2;ratioP2
19808;SDS011;48538;32.784;-96.802;2023-09-19T00:00:20;9.52;;;5.40;;
19808;SDS011;48538;32.784;-96.802;2023-09-19T00:03:06;4.55;;;2.97;;
19808;SDS011;48538;32.784;-96.802;2023-09-19T00:05:34;4.80;;;2.22;;
19808;SDS011;48538;32.784;-96.802;2023-09-19T00:08:02;4.70;;;2.72;;
19808;SDS011;48538;32.784;-96.802;2023-09-19T00:10:29;5.07;;;2.90;;
19808;SDS011;48538;32.784;-96.802;2023-09-19T00:12:57;5.00;;;2.95;;
19808;SDS011;48538;32.784;-96.802;2023-09-19T00:15:27;4.43;;;2.85;;
19808;SDS011;48538;32.784;-96.802;2023-09-19T00:17:56;6.50;;;3.25;;
19808;SDS011;48538;32.784;-96.802;2023-09-19T00:20:23;5.25;;;3.10;;
19808;SDS011;48538;32.784;-96.802;2023-09-19T00:22:50;3.00;;;2.40;;
19808;SDS011;48538;32.784;-96.802;2023-09-19T00:25:19;5.90;;;3.38;;
19808;SDS011;48538;32.784;-96.802;2023-09-19T00:27:46;5.75;;;3.10;;
19808;SDS011;48538;32.784;-96.802;2023-09-19T00:30:15;6.03;;;3.05;;
19808;SDS011;48538;32.784;-96.802;2023-09-19T00:32:45;3.40;;;2.35;;
19808;SDS011;48538;32.784;-96.802;2023-09-19T00:35:20;4.75;;;2.58;;
19808;SDS011;48538;32.784;-96.802;2023-09-19T00:37:49;10.63;;;3.00;;
19808;SDS011;48538;32.784;-96.802;2023-09-19T00:40:16;5.60;;;2.92;;
19808;SDS011;48538;32.784;-96.802;2023-09-19T00:42:43;4.05;;;2.83;;
19808;SDS011;48538;32.784;-96.802;2023-09-19T00:45:11;5.88;;;2.83;;
19808;SDS011;48538;32.784;-96.802;2023-09-19T00:47:46;5.22;;;2.92;;
19808;SDS011;48538;32.784;-96.802;2023-09-19T00:50:14;4.82;;;2.80;;
19808;SDS011;48538;32.784;-96.802;2023-09-19T00:52:46;5.53;;;3.03;;
19808;SDS011;48538;32.784;-96.802;2023-09-19T00:55:15;4.88;;;3.17;;
19808;SDS011;48538;32.784;-96.802;2023-09-19T00:57:45;5.22;;;2.83;;
19808;SDS011;48538;32.784;-96.802;2023-09-19T01:00:15;7.22;;;3.38;;
19808;SDS011;48538;32.784;-96.802;2023-09-19T01:02:44;7.55;;;3.67;;
19808;SDS011;48538;32.784;-96.802;2023-09-19T01:05:11;6.70;;;3.47;;
19808;SDS011;48538;32.784;-96.802;2023-09-19T01:07:38;4.82;;;2.97;;
19808;SDS011;48538;32.784;-96.802;2023-09-19T01:10:14;5.85;;;3.25;;
19808;SDS011;48538;32.784;-96.802;2023-09-19T01:12:55;6.70;;;3.42;;
19808;SDS011;48538;32.784;-96.802;2023-09-19T01:18:35;8.20;;;4.13;;
19808;SDS011;48538;32.784;-96.802;2023-09-19T01:27:35;5.15;;;3.10;;
19808;SDS011;48538;32.784;-96.802;2023-09-19T01:30:20;7.00;;;3.33;;
19808;SDS011;48538;32.784;-96.802;2023-09-19T01:32:53;4.28;;;3.00;;
19808;SDS011;48538;32.784;-96.802;2023-09-19T01:35:19;5.32;;;3.10;;
19808;SDS011;48538;32.784;-96.802;2023-09-19T01:37:45;7.68;;;3.25;;
19808;SDS011;48538;32.784;-96.802;2023-09-19T01:40:13;6.47;;;3.28;;
19808;SDS011;48538;32.784;-96.802;2023-09-19T01:48:25;8.35;;;3.60;;
19808;SDS011;48538;32.784;-96.802;2023-09-19T01:51:34;8.27;;;3.83;;
19808;SDS011;48538;32.784;-96.802;2023-09-19T01:54:12;7.15;;;3.22;;
19808;SDS011;48538;32.784;-96.802;2023-09-19T01:56:53;6.32;;;3.03;;
19808;SDS011;48538;32.784;-96.802;2023-09-19T01:59:37;5.47;;;3.60;;
19808;SDS011;48538;32.784;-96.802;2023-09-19T02:02:08;6.40;;;3.45;;
19808;SDS011;48538;32.784;-96.802;2023-09-19T02:04:35;5.75;;;2.85;;
19808;SDS011;48538;32.784;-96.802;2023-09-19T02:07:02;6.95;;;3.28;;
19808;SDS011;48538;32.784;-96.802;2023-09-19T02:09:31;6.15;;;4.00;;
19808;SDS011;48538;32.784;-96.802;2023-09-19T02:12:01;10.85;;;4.68;;
19808;SDS011;48538;32.784;-96.802;2023-09-19T02:14:29;10.32;;;4.18;;
19808;SDS011;48538;32.784;-96.802;2023-09-19T02:16:56;8.63;;;3.47;;
19808;SDS011;48538;32.784;-96.802;2023-09-19T02:19:22;6.10;;;3.03;;
19808;SDS011;48538;32.784;-96.802;2023-09-19T02:21:48;8.88;;;4.07;;
19808;SDS011;48538;32.784;-96.802;2023-09-19T02:24:15;6.80;;;3.50;;
19808;SDS011;48538;32.784;-96.802;2023-09-19T02:26:41;12.18;;;3.47;;
19808;SDS011;48538;32.784;-96.802;2023-09-19T02:29:07;4.70;;;2.75;;
19808;SDS011;48538;32.784;-96.802;2023-09-19T02:31:36;8.20;;;4.20;;
19808;SDS011;48538;32.784;-96.802;2023-09-19T02:34:02;8.60;;;4.07;;
19808;SDS011;48538;32.784;-96.802;2023-09-19T02:36:29;5.82;;;3.63;;
19808;SDS011;48538;32.784;-96.802;2023-09-19T02:38:56;8.30;;;3.67;;
19808;SDS011;48538;32.784;-96.802;2023-09-19T02:41:22;5.40;;;3.47;;
19808;SDS011;48538;32.784;-96.802;2023-09-19T02:43:48;6.38;;;4.05;;
19808;SDS011;48538;32.784;-96.802;2023-09-19T02:46:14;4.68;;;3.20;;
19808;SDS011;48538;32.784;-96.802;2023-09-19T02:48:42;7.97;;;3.00;;
19808;SDS011;48538;32.784;-96.802;2023-09-19T02:51:08;10.77;;;4.05;;
19808;SDS011;48538;32.784;-96.802;2023-09-19T02:53:34;7.80;;;3.42;;
19808;SDS011;48538;32.784;-96.802;2023-09-19T02:56:01;5.50;;;3.58;;
19808;SDS011;48538;32.784;-96.802;2023-09-19T02:58:29;7.35;;;3.00;;
19808;SDS011;48538;32.784;-96.802;2023-09-19T03:00:55;6.85;;;3.42;;
19808;SDS011;48538;32.784;-96.802;2023-09-19T03:03:22;5.65;;;3.25;;
19808;SDS011;48538;32.784;-96.802;2023-09-19T03:05:49;5.32;;;3.47;;
19808;SDS011;48538;32.784;-96.802;2023-09-19T03:08:16;7.93;;;3.50;;
19808;SDS011;48538;32.784;-96.802;2023-09-19T03:10:44;7.75;;;4.18;;
19808;SDS011;48538;32.784;-96.802;2023-09-19T03:13:13;5.05;;;3.30;;
19808;SDS011;48538;32.784;-96.802;2023-09-19T03:15:43;7.68;;;3.42;;
19808;SDS011;48538;32.784;-96.802;2023-09-19T03:18:12;9.70;;;3.72;;
19808;SDS011;48538;32.784;-96.802;2023-09-19T03:20:38;3.67;;;2.70;;
19808;SDS011;48538;32.784;-96.802;2023-09-19T03:23:04;4.43;;;3.00;;
19808;SDS011;48538;32.784;-96.802;2023-09-19T03:25:33;4.90;;;3.03;;
19808;SDS011;48538;32.784;-96.802;2023-09-19T03:28:01;5.13;;;3.40;;
19808;SDS011;48538;32.784;-96.802;2023-09-19T03:30:31;6.80;;;3.20;;
19808;SDS011;48538;32.784;-96.802;2023-09-19T03:32:58;4.65;;;3.28;;
19808;SDS011;48538;32.784;-96.802;2023-09-19T03:35:25;7.80;;;3.50;;
19808;SDS011;48538;32.784;-96.802;2023-09-19T03:37:52;8.82;;;3.00;;
19808;SDS011;48538;32.784;-96.802;2023-09-19T03:40:18;5.43;;;3.20;;
19808;SDS011;48538;32.784;-96.802;2023-09-19T03:42:46;3.83;;;3.10;;
19808;SDS011;48538;32.784;-96.802;2023-09-19T03:45:13;3.72;;;3.03;;
19808;SDS011;48538;32.784;-96.802;2023-09-19T03:47:39;7.30;;;3.38;;
19808;SDS011;48538;32.784;-96.802;2023-09-19T03:50:06;5.57;;;3.28;;
19808;SDS011;48538;32.784;-96.802;2023-09-19T03:52:33;6.03;;;3.10;;
19808;SDS011;48538;32.784;-96.802;2023-09-19T03:54:59;6.47;;;3.95;;
19808;SDS011;48538;32.784;-96.802;2023-09-19T03:57:27;6.80;;;3.78;;
19808;SDS011;48538;32.784;-96.802;2023-09-19T03:59:54;5.93;;;3.50;;
19808;SDS011;48538;32.784;-96.802;2023-09-19T04:02:21;5.03;;;3.25;;
19808;SDS011;48538;32.784;-96.802;2023-09-19T04:04:50;7.93;;;3.92;;
19808;SDS011;48538;32.784;-96.802;2023-09-19T04:07:17;6.35;;;3.53;;
19808;SDS011;48538;32.784;-96.802;2023-09-19T04:09:47;6.28;;;3.38;;
19808;SDS011;48538;32.784;-96.802;2023-09-19T04:12:14;7.47;;;3.47;;
19808;SDS011;48538;32.784;-96.802;2023-09-19T04:14:44;7.30;;;3.50;;
19808;SDS011;48538;32.784;-96.802;2023-09-19T04:17:10;7.10;;;3.65;;
19808;SDS011;48538;32.784;-96.802;2023-09-19T04:19:36;6.13;;;3.75;;
19808;SDS011;48538;32.784;-96.802;2023-09-19T04:22:03;10.65;;;3.40;;
19808;SDS011;48538;32.784;-96.802;2023-09-19T04:24:29;5.85;;;3.20;;
19808;SDS011;48538;32.784;-96.802;2023-09-19T04:26:57;4.80;;;3.28;;
19808;SDS011;48538;32.784;-96.802;2023-09-19T04:29:24;5.95;;;4.15;;
19808;SDS011;48538;32.784;-96.802;2023-09-19T04:31:55;5.53;;;3.08;;
19808;SDS011;48538;32.784;-96.802;2023-09-19T04:34:24;7.47;;;3.38;;
19808;SDS011;48538;32.784;-96.802;2023-09-19T04:36:50;6.35;;;3.30;;
19808;SDS011;48538;32.784;-96.802;2023-09-19T04:39:18;6.25;;;3.50;;
19808;SDS011;48538;32.784;-96.802;2023-09-19T04:41:44;4.55;;;3.35;;
19808;SDS011;48538;32.784;-96.802;2023-09-19T04:44:11;5.70;;;3.08;;
19808;SDS011;48538;32.784;-96.802;2023-09-19T04:46:38;6.40;;;3.50;;
19808;SDS011;48538;32.784;-96.802;2023-09-19T04:49:05;5.55;;;3.50;;
19808;SDS011;48538;32.784;-96.802;2023-09-19T04:51:31;5.53;;;3.78;;
19808;SDS011;48538;32.784;-96.802;2023-09-19T04:54:00;6.78;;;3.42;;
19808;SDS011;48538;32.784;-96.802;2023-09-19T04:56:26;5.47;;;3.58;;
19808;SDS011;48538;32.784;-96.802;2023-09-19T04:58:53;6.97;;;3.60;;
19808;SDS011;48538;32.784;-96.802;2023-09-19T05:01:20;7.28;;;3.65;;
19808;SDS011;48538;32.784;-96.802;2023-09-19T05:03:48;5.35;;;3.15;;
19808;SDS011;48538;32.784;-96.802;2023-09-19T05:06:20;6.15;;;3.83;;
19808;SDS011;48538;32.784;-96.802;2023-09-19T05:08:48;7.47;;;3.30;;
19808;SDS011;48538;32.784;-96.802;2023-09-19T05:11:18;9.82;;;3.97;;
19808;SDS011;48538;32.784;-96.802;2023-09-19T05:13:46;6.60;;;3.10;;
19808;SDS011;48538;32.784;-96.802;2023-09-19T05:16:15;7.38;;;3.72;;
19808;SDS011;48538;32.784;-96.802;2023-09-19T05:18:43;6.85;;;4.15;;
19808;SDS011;48538;32.784;-96.802;2023-09-19T05:21:10;5.13;;;3.28;;
19808;SDS011;48538;32.784;-96.802;2023-09-19T05:23:37;7.43;;;3.80;;
19808;SDS011;48538;32.784;-96.802;2023-09-19T05:26:03;7.85;;;3.47;;
19808;SDS011;48538;32.784;-96.802;2023-09-19T05:28:30;5.25;;;3.55;;
19808;SDS011;48538;32.784;-96.802;2023-09-19T05:30:59;5.10;;;3.45;;
19808;SDS011;48538;32.784;-96.802;2023-09-19T05:33:29;6.28;;;3.47;;
19808;SDS011;48538;32.784;-96.802;2023-09-19T05:35:57;5.55;;;3.30;;
19808;SDS011;48538;32.784;-96.802;2023-09-19T05:38:23;8.05;;;3.70;;
19808;SDS011;48538;32.784;-96.802;2023-09-19T05:40:51;5.72;;;3.08;;
19808;SDS011;48538;32.784;-96.802;2023-09-19T05:43:18;5.15;;;3.55;;
19808;SDS011;48538;32.784;-96.802;2023-09-19T05:45:44;5.90;;;3.70;;
19808;SDS011;48538;32.784;-96.802;2023-09-19T05:48:13;5.10;;;3.58;;
19808;SDS011;48538;32.784;-96.802;2023-09-19T05:50:41;5.13;;;3.30;;
19808;SDS011;48538;32.784;-96.802;2023-09-19T05:53:08;6.05;;;3.85;;
19808;SDS011;48538;32.784;-96.802;2023-09-19T05:55:37;7.25;;;3.40;;
19808;SDS011;48538;32.784;-96.802;2023-09-19T05:58:04;6.43;;;3.35;;
19808;SDS011;48538;32.784;-96.802;2023-09-19T06:00:30;7.15;;;3.20;;
19808;SDS011;48538;32.784;-96.802;2023-09-19T06:02:58;5.30;;;3.63;;
19808;SDS011;48538;32.784;-96.802;2023-09-19T06:05:25;7.25;;;3.55;;
19808;SDS011;48538;32.784;-96.802;2023-09-19T06:07:53;6.90;;;3.45;;
19808;SDS011;48538;32.784;-96.802;2023-09-19T06:10:19;9.07;;;3.85;;
19808;SDS011;48538;32.784;-96.802;2023-09-19T06:12:46;5.75;;;3.20;;
19808;SDS011;48538;32.784;-96.802;2023-09-19T06:15:14;8.02;;;3.45;;
19808;SDS011;48538;32.784;-96.802;2023-09-19T06:17:42;6.35;;;3.33;;
19808;SDS011;48538;32.784;-96.802;2023-09-19T06:20:08;4.40;;;3.00;;
19808;SDS011;48538;32.784;-96.802;2023-09-19T06:22:42;4.65;;;3.58;;
19808;SDS011;48538;32.784;-96.802;2023-09-19T06:25:13;4.72;;;3.60;;
19808;SDS011;48538;32.784;-96.802;2023-09-19T06:27:47;5.57;;;3.58;;
19808;SDS011;48538;32.784;-96.802;2023-09-19T06:30:17;3.92;;;3.10;;
19808;SDS011;48538;32.784;-96.802;2023-09-19T06:32:44;5.55;;;3.63;;
19808;SDS011;48538;32.784;-96.802;2023-09-19T06:35:10;4.95;;;3.50;;
19808;SDS011;48538;32.784;-96.802;2023-09-19T06:37:38;5.60;;;3.30;;
19808;SDS011;48538;32.784;-96.802;2023-09-19T06:40:06;4.93;;;3.22;;
19808;SDS011;48538;32.784;-96.802;2023-09-19T06:42:38;6.80;;;3.70;;
19808;SDS011;48538;32.784;-96.802;2023-09-19T06:45:12;5.80;;;3.22;;
19808;SDS011;48538;32.784;-96.802;2023-09-19T06:47:43;5.10;;;3.33;;
19808;SDS011;48538;32.784;-96.802;2023-09-19T06:50:20;8.20;;;3.38;;
19808;SDS011;48538;32.784;-96.802;2023-09-19T06:52:53;4.72;;;3.33;;
19808;SDS011;48538;32.784;-96.802;2023-09-19T06:55:22;5.15;;;3.47;;
19808;SDS011;48538;32.784;-96.802;2023-09-19T06:57:50;5.78;;;3.60;;
19808;SDS011;48538;32.784;-96.802;2023-09-19T07:00:16;5.40;;;3.03;;
19808;SDS011;48538;32.784;-96.802;2023-09-19T07:03:03;6.30;;;3.22;;
19808;SDS011;48538;32.784;-96.802;2023-09-19T07:05:37;5.78;;;3.67;;
19808;SDS011;48538;32.784;-96.802;2023-09-19T07:08:04;5.70;;;3.30;;
19808;SDS011;48538;32.784;-96.802;2023-09-19T07:10:32;6.93;;;3.67;;
19808;SDS011;48538;32.784;-96.802;2023-09-19T07:13:00;7.03;;;3.75;;
19808;SDS011;48538;32.784;-96.802;2023-09-19T07:15:28;6.13;;;4.00;;
19808;SDS011;48538;32.784;-96.802;2023-09-19T07:17:58;5.80;;;3.38;;
19808;SDS011;48538;32.784;-96.802;2023-09-19T07:20:26;10.65;;;4.40;;
19808;SDS011;48538;32.784;-96.802;2023-09-19T07:22:55;4.65;;;3.50;;
19808;SDS011;48538;32.784;-96.802;2023-09-19T07:25:21;5.93;;;3.90;;
19808;SDS011;48538;32.784;-96.802;2023-09-19T07:27:48;6.82;;;3.80;;
19808;SDS011;48538;32.784;-96.802;2023-09-19T07:30:14;6.78;;;4.00;;
19808;SDS011;48538;32.784;-96.802;2023-09-19T07:32:42;5.30;;;3.15;;
19808;SDS011;48538;32.784;-96.802;2023-09-19T07:35:08;5.97;;;3.60;;
19808;SDS011;48538;32.784;-96.802;2023-09-19T07:37:34;5.45;;;3.33;;
19808;SDS011;48538;32.784;-96.802;2023-09-19T07:40:04;6.25;;;3.63;;
19808;SDS011;48538;32.784;-96.802;2023-09-19T07:42:35;7.45;;;3.75;;
19808;SDS011;48538;32.784;-96.802;2023-09-19T07:45:08;5.47;;;3.40;;
19808;SDS011;48538;32.784;-96.802;2023-09-19T07:47:43;5.40;;;3.38;;
19808;SDS011;48538;32.784;-96.802;2023-09-19T07:50:12;6.10;;;3.65;;
19808;SDS011;48538;32.784;-96.802;2023-09-19T07:52:41;4.45;;;3.00;;
19808;SDS011;48538;32.784;-96.802;2023-09-19T07:55:08;3.95;;;3.28;;
19808;SDS011;48538;32.784;-96.802;2023-09-19T07:57:36;5.47;;;3.22;;
19808;SDS011;48538;32.784;-96.802;2023-09-19T08:00:03;5.65;;;3.83;;
19808;SDS011;48538;32.784;-96.802;2023-09-19T08:02:38;6.05;;;3.97;;
19808;SDS011;48538;32.784;-96.802;2023-09-19T08:05:06;8.73;;;4.13;;
19808;SDS011;48538;32.784;-96.802;2023-09-19T08:07:37;7.72;;;3.80;;
19808;SDS011;48538;32.784;-96.802;2023-09-19T08:10:04;5.82;;;4.10;;
19808;SDS011;48538;32.784;-96.802;2023-09-19T08:12:39;7.63;;;4.30;;
19808;SDS011;48538;32.784;-96.802;2023-09-19T08:15:14;6.13;;;3.72;;
19808;SDS011;48538;32.784;-96.802;2023-09-19T08:17:48;5.22;;;3.40;;
19808;SDS011;48538;32.784;-96.802;2023-09-19T08:20:15;6.00;;;3.72;;
19808;SDS011;48538;32.784;-96.802;2023-09-19T08:22:52;6.10;;;3.67;;
19808;SDS011;48538;32.784;-96.802;2023-09-19T08:25:21;7.28;;;4.15;;
19808;SDS011;48538;32.784;-96.802;2023-09-19T08:27:48;6.15;;;4.03;;
19808;SDS011;48538;32.784;-96.802;2023-09-19T08:30:16;6.68;;;3.88;;
19808;SDS011;48538;32.784;-96.802;2023-09-19T08:32:43;5.55;;;4.32;;
19808;SDS011;48538;32.784;-96.802;2023-09-19T08:35:10;6.80;;;4.53;;
19808;SDS011;48538;32.784;-96.802;2023-09-19T08:37:37;7.03;;;4.60;;
19808;SDS011;48538;32.784;-96.802;2023-09-19T08:40:03;6.22;;;3.40;;
19808;SDS011;48538;32.784;-96.802;2023-09-19T08:42:55;5.75;;;3.47;;
19808;SDS011;48538;32.784;-96.802;2023-09-19T08:45:21;6.30;;;3.67;;
19808;SDS011;48538;32.784;-96.802;2023-09-19T08:50:31;5.80;;;3.78;;
19808;SDS011;48538;32.784;-96.802;2023-09-19T08:53:01;8.32;;;4.18;;
19808;SDS011;48538;32.784;-96.802;2023-09-19T08:55:36;5.32;;;3.75;;
19808;SDS011;48538;32.784;-96.802;2023-09-19T08:58:03;5.90;;;3.88;;
19808;SDS011;48538;32.784;-96.802;2023-09-19T09:00:32;4.72;;;3.40;;
19808;SDS011;48538;32.784;-96.802;2023-09-19T09:03:00;4.75;;;3.95;;
19808;SDS011;48538;32.784;-96.802;2023-09-19T09:05:28;8.45;;;4.00;;
19808;SDS011;48538;32.784;-96.802;2023-09-19T09:07:55;6.47;;;3.95;;
19808;SDS011;48538;32.784;-96.802;2023-09-19T09:10:22;10.88;;;4.05;;
19808;SDS011;48538;32.784;-96.802;2023-09-19T09:12:52;5.97;;;3.72;;
19808;SDS011;48538;32.784;-96.802;2023-09-19T09:15:21;6.95;;;4.50;;
19808;SDS011;48538;32.784;-96.802;2023-09-19T09:17:49;6.00;;;4.00;;
19808;SDS011;48538;32.784;-96.802;2023-09-19T09:20:18;6.47;;;4.13;;
19808;SDS011;48538;32.784;-96.802;2023-09-19T09:23:02;12.30;;;4.55;;
19808;SDS011;48538;32.784;-96.802;2023-09-19T09:28:19;6.05;;;4.45;;
19808;SDS011;48538;32.784;-96.802;2023-09-19T09:30:47;5.57;;;4.45;;
19808;SDS011;48538;32.784;-96.802;2023-09-19T09:33:14;8.05;;;4.78;;
19808;SDS011;48538;32.784;-96.802;2023-09-19T09:35:48;7.50;;;4.50;;
19808;SDS011;48538;32.784;-96.802;2023-09-19T09:38:19;6.40;;;4.35;;
19808;SDS011;48538;32.784;-96.802;2023-09-19T09:40:46;5.47;;;3.78;;
19808;SDS011;48538;32.784;-96.802;2023-09-19T09:43:28;10.65;;;4.28;;
19808;SDS011;48538;32.784;-96.802;2023-09-19T09:46:15;5.82;;;4.15;;
19808;SDS011;48538;32.784;-96.802;2023-09-19T09:48:48;7.97;;;4.22;;
19808;SDS011;48538;32.784;-96.802;2023-09-19T09:51:34;6.65;;;4.22;;
19808;SDS011;48538;32.784;-96.802;2023-09-19T09:54:18;7.07;;;4.57;;
19808;SDS011;48538;32.784;-96.802;2023-09-19T09:56:52;6.50;;;4.20;;
19808;SDS011;48538;32.784;-96.802;2023-09-19T10:02:15;6.65;;;4.50;;
19808;SDS011;48538;32.784;-96.802;2023-09-19T10:04:54;4.70;;;3.85;;
19808;SDS011;48538;32.784;-96.802;2023-09-19T10:07:32;5.93;;;3.92;;
19808;SDS011;48538;32.784;-96.802;2023-09-19T10:10:04;7.13;;;4.15;;
19808;SDS011;48538;32.784;-96.802;2023-09-19T10:12:57;5.97;;;4.68;;
19808;SDS011;48538;32.784;-96.802;2023-09-19T10:15:29;6.03;;;4.18;;
19808;SDS011;48538;32.784;-96.802;2023-09-19T10:17:59;6.63;;;4.53;;
19808;SDS011;48538;32.784;-96.802;2023-09-19T10:20:27;7.53;;;4.85;;
19808;SDS011;48538;32.784;-96.802;2023-09-19T10:23:05;7.05;;;4.40;;
19808;SDS011;48538;32.784;-96.802;2023-09-19T10:25:38;7.22;;;4.55;;
19808;SDS011;48538;32.784;-96.802;2023-09-19T10:28:10;5.28;;;4.18;;
19808;SDS011;48538;32.784;-96.802;2023-09-19T10:30:42;7.20;;;4.75;;
19808;SDS011;48538;32.784;-96.802;2023-09-19T10:33:13;9.15;;;5.40;;
19808;SDS011;48538;32.784;-96.802;2023-09-19T10:35:45;5.05;;;3.95;;
19808;SDS011;48538;32.784;-96.802;2023-09-19T10:38:13;8.90;;;4.32;;
19808;SDS011;48538;32.784;-96.802;2023-09-19T10:40:44;8.38;;;4.25;;
19808;SDS011;48538;32.784;-96.802;2023-09-19T10:43:15;7.07;;;4.47;;
19808;SDS011;48538;32.784;-96.802;2023-09-19T10:45:43;7.93;;;5.10;;
19808;SDS011;48538;32.784;-96.802;2023-09-19T10:48:18;7.15;;;5.13;;
19808;SDS011;48538;32.784;-96.802;2023-09-19T10:50:58;7.25;;;4.28;;
19808;SDS011;48538;32.784;-96.802;2023-09-19T10:56:27;8.48;;;4.80;;
19808;SDS011;48538;32.784;-96.802;2023-09-19T10:59:06;9.00;;;4.38;;
19808;SDS011;48538;32.784;-96.802;2023-09-19T11:01:44;6.50;;;4.18;;
19808;SDS011;48538;32.784;-96.802;2023-09-19T11:09:49;7.53;;;4.45;;
19808;SDS011;48538;32.784;-96.802;2023-09-19T11:15:03;7.53;;;4.93;;
19808;SDS011;48538;32.784;-96.802;2023-09-19T11:17:34;7.63;;;4.80;;
19808;SDS011;48538;32.784;-96.802;2023-09-19T11:33:18;6.70;;;5.18;;
19808;SDS011;48538;32.784;-96.802;2023-09-19T11:36:15;7.25;;;4.65;;
19808;SDS011;48538;32.784;-96.802;2023-09-19T11:46:51;8.65;;;4.28;;
19808;SDS011;48538;32.784;-96.802;2023-09-19T11:49:18;14.15;;;4.82;;
19808;SDS011;48538;32.784;-96.802;2023-09-19T11:51:51;7.47;;;4.95;;
19808;SDS011;48538;32.784;-96.802;2023-09-19T11:54:19;7.57;;;4.72;;
19808;SDS011;48538;32.784;-96.802;2023-09-19T11:56:50;7.53;;;4.93;;
19808;SDS011;48538;32.784;-96.802;2023-09-19T11:59:23;7.97;;;5.18;;
19808;SDS011;48538;32.784;-96.802;2023-09-19T12:01:57;11.63;;;5.55;;
19808;SDS011;48538;32.784;-96.802;2023-09-19T12:04:35;8.20;;;5.40;;
19808;SDS011;48538;32.784;-96.802;2023-09-19T12:07:04;8.43;;;5.13;;
19808;SDS011;48538;32.784;-96.802;2023-09-19T12:09:39;10.02;;;4.90;;
19808;SDS011;48538;32.784;-96.802;2023-09-19T12:12:07;12.35;;;5.38;;
19808;SDS011;48538;32.784;-96.802;2023-09-19T12:14:34;7.72;;;5.55;;
19808;SDS011;48538;32.784;-96.802;2023-09-19T12:17:00;8.68;;;5.63;;
19808;SDS011;48538;32.784;-96.802;2023-09-19T12:19:28;8.23;;;5.88;;
19808;SDS011;48538;32.784;-96.802;2023-09-19T12:21:55;9.68;;;5.72;;
19808;SDS011;48538;32.784;-96.802;2023-09-19T12:24:25;8.25;;;5.15;;
19808;SDS011;48538;32.784;-96.802;2023-09-19T12:26:59;7.57;;;5.85;;
19808;SDS011;48538;32.784;-96.802;2023-09-19T12:29:26;9.63;;;5.22;;
19808;SDS011;48538;32.784;-96.802;2023-09-19T12:31:55;6.32;;;5.13;;
19808;SDS011;48538;32.784;-96.802;2023-09-19T12:34:27;9.75;;;5.82;;
19808;SDS011;48538;32.784;-96.802;2023-09-19T12:37:04;10.13;;;5.43;;
19808;SDS011;48538;32.784;-96.802;2023-09-19T12:39:37;10.98;;;5.22;;
19808;SDS011;48538;32.784;-96.802;2023-09-19T12:42:19;9.32;;;5.93;;
19808;SDS011;48538;32.784;-96.802;2023-09-19T12:44:47;7.15;;;5.32;;
19808;SDS011;48538;32.784;-96.802;2023-09-19T12:47:21;7.65;;;5.35;;
19808;SDS011;48538;32.784;-96.802;2023-09-19T12:52:42;10.18;;;5.68;;
19808;SDS011;48538;32.784;-96.802;2023-09-19T13:00:47;7.53;;;5.10;;
19808;SDS011;48538;32.784;-96.802;2023-09-19T13:08:28;8.63;;;5.35;;
19808;SDS011;48538;32.784;-96.802;2023-09-19T13:11:02;6.35;;;5.00;;
19808;SDS011;48538;32.784;-96.802;2023-09-19T13:13:36;8.57;;;5.35;;
19808;SDS011;48538;32.784;-96.802;2023-09-19T13:16:03;9.18;;;5.88;;
19808;SDS011;48538;32.784;-96.802;2023-09-19T13:18:47;11.68;;;7.07;;
19808;SDS011;48538;32.784;-96.802;2023-09-19T13:21:27;8.07;;;5.07;;
19808;SDS011;48538;32.784;-96.802;2023-09-19T13:24:17;10.30;;;6.05;;
19808;SDS011;48538;32.784;-96.802;2023-09-19T13:26:48;8.15;;;5.63;;
19808;SDS011;48538;32.784;-96.802;2023-09-19T13:29:15;13.88;;;5.70;;
19808;SDS011;48538;32.784;-96.802;2023-09-19T13:31:51;8.10;;;4.88;;
19808;SDS011;48538;32.784;-96.802;2023-09-19T13:34:21;9.38;;;5.10;;
19808;SDS011;48538;32.784;-96.802;2023-09-19T13:36:47;9.23;;;5.05;;
19808;SDS011;48538;32.784;-96.802;2023-09-19T13:39:14;9.77;;;6.10;;
19808;SDS011;48538;32.784;-96.802;2023-09-19T13:41:49;10.18;;;6.03;;
19808;SDS011;48538;32.784;-96.802;2023-09-19T13:44:15;7.68;;;5.57;;
19808;SDS011;48538;32.784;-96.802;2023-09-19T13:46:43;8.35;;;5.07;;
19808;SDS011;48538;32.784;-96.802;2023-09-19T13:49:11;7.25;;;4.70;;
19808;SDS011;48538;32.784;-96.802;2023-09-19T13:51:37;7.35;;;4.80;;
19808;SDS011;48538;32.784;-96.802;2023-09-19T13:54:03;9.75;;;5.68;;
19808;SDS011;48538;32.784;-96.802;2023-09-19T13:56:30;12.30;;;5.60;;
19808;SDS011;48538;32.784;-96.802;2023-09-19T13:58:57;10.48;;;5.63;;
19808;SDS011;48538;32.784;-96.802;2023-09-19T14:01:23;12.02;;;5.68;;
19808;SDS011;48538;32.784;-96.802;2023-09-19T14:03:51;11.82;;;5.93;;
19808;SDS011;48538;32.784;-96.802;2023-09-19T14:06:19;8.43;;;5.65;;
19808;SDS011;48538;32.784;-96.802;2023-09-19T14:08:45;9.93;;;5.53;;
19808;SDS011;48538;32.784;-96.802;2023-09-19T14:11:15;12.15;;;5.55;;
19808;SDS011;48538;32.784;-96.802;2023-09-19T14:13:41;7.00;;;4.55;;
19808;SDS011;48538;32.784;-96.802;2023-09-19T14:16:13;6.88;;;4.78;;
19808;SDS011;48538;32.784;-96.802;2023-09-19T14:18:44;11.10;;;6.20;;
19808;SDS011;48538;32.784;-96.802;2023-09-19T14:21:11;10.88;;;5.90;;
19808;SDS011;48538;32.784;-96.802;2023-09-19T14:23:38;9.45;;;5.85;;
19808;SDS011;48538;32.784;-96.802;2023-09-19T14:26:04;11.50;;;5.07;;
19808;SDS011;48538;32.784;-96.802;2023-09-19T14:28:31;10.88;;;5.70;;
19808;SDS011;48538;32.784;-96.802;2023-09-19T14:31:05;10.80;;;5.43;;
19808;SDS011;48538;32.784;-96.802;2023-09-19T14:33:35;12.57;;;5.47;;
19808;SDS011;48538;32.784;-96.802;2023-09-19T14:36:06;12.63;;;5.65;;
19808;SDS011;48538;32.784;-96.802;2023-09-19T14:38:34;11.45;;;6.03;;
19808;SDS011;48538;32.784;-96.802;2023-09-19T14:41:02;9.82;;;4.80;;
19808;SDS011;48538;32.784;-96.802;2023-09-19T14:43:31;12.32;;;6.38;;
19808;SDS011;48538;32.784;-96.802;2023-09-19T14:46:03;9.43;;;5.43;;
19808;SDS011;48538;32.784;-96.802;2023-09-19T14:48:33;14.93;;;5.85;;
19808;SDS011;48538;32.784;-96.802;2023-09-19T14:51:06;13.35;;;6.70;;
19808;SDS011;48538;32.784;-96.802;2023-09-19T14:53:37;11.60;;;5.15;;
19808;SDS011;48538;32.784;-96.802;2023-09-19T14:56:04;14.38;;;5.63;;
19808;SDS011;48538;32.784;-96.802;2023-09-19T14:58:33;10.38;;;5.25;;
19808;SDS011;48538;32.784;-96.802;2023-09-19T15:01:07;11.98;;;5.30;;
19808;SDS011;48538;32.784;-96.802;2023-09-19T15:03:41;11.38;;;5.30;;
19808;SDS011;48538;32.784;-96.802;2023-09-19T15:06:10;12.15;;;5.20;;
19808;SDS011;48538;32.784;-96.802;2023-09-19T15:08:40;7.05;;;5.13;;
19808;SDS011;48538;32.784;-96.802;2023-09-19T15:11:11;7.40;;;4.13;;
19808;SDS011;48538;32.784;-96.802;2023-09-19T15:13:37;11.48;;;4.95;;
19808;SDS011;48538;32.784;-96.802;2023-09-19T15:16:05;6.30;;;4.22;;
19808;SDS011;48538;32.784;-96.802;2023-09-19T15:18:35;8.27;;;4.53;;
19808;SDS011;48538;32.784;-96.802;2023-09-19T15:21:12;7.95;;;3.83;;
19808;SDS011;48538;32.784;-96.802;2023-09-19T15:23:40;8.32;;;3.67;;
19808;SDS011;48538;32.784;-96.802;2023-09-19T15:26:09;5.40;;;4.07;;
19808;SDS011;48538;32.784;-96.802;2023-09-19T15:28:37;6.28;;;4.38;;
19808;SDS011;48538;32.784;-96.802;2023-09-19T15:31:08;6.72;;;4.40;;
19808;SDS011;48538;32.784;-96.802;2023-09-19T15:33:38;5.88;;;4.15;;
19808;SDS011;48538;32.784;-96.802;2023-09-19T15:36:08;7.13;;;3.92;;
19808;SDS011;48538;32.784;-96.802;2023-09-19T15:41:37;7.50;;;4.20;;
19808;SDS011;48538;32.784;-96.802;2023-09-19T15:44:10;7.68;;;4.38;;
19808;SDS011;48538;32.784;-96.802;2023-09-19T15:46:37;7.82;;;4.50;;
19808;SDS011;48538;32.784;-96.802;2023-09-19T15:49:03;6.63;;;4.15;;